createdAt,value
2022-10-15T00:00:08.228Z,99232.38
2022-10-15T00:02:35.275Z,99232.38
2022-10-15T00:05:01.995Z,99236.78
2022-10-15T00:07:29.135Z,99236.13
2022-10-15T00:09:56.628Z,99232.38
2022-10-15T00:12:23.096Z,99227.81
2022-10-15T00:14:49.582Z,99225.69
2022-10-15T00:17:16.035Z,99225.50
2022-10-15T00:19:42.464Z,99218.63
2022-10-15T00:22:08.950Z,99217.19
2022-10-15T00:24:36.770Z,99220.72
2022-10-15T00:27:03.543Z,99222.16
2022-10-15T00:29:29.966Z,99218.63
2022-10-15T00:31:56.650Z,99216.50
2022-10-15T00:34:23.171Z,99217.28
2022-10-15T00:36:50.641Z,99215.97
2022-10-15T00:39:19.858Z,99208.06
2022-10-15T00:41:47.082Z,99205.25
2022-10-15T00:44:26.709Z,99201.44
2022-10-15T00:47:04.318Z,99200.97
2022-10-15T00:49:34.727Z,99198.91
2022-10-15T00:52:04.264Z,99199.75
2022-10-15T00:54:34.308Z,99199.50
2022-10-15T00:57:01.074Z,99202.00
2022-10-15T00:59:28.523Z,99195.34
2022-10-15T01:01:55.472Z,99190.75
2022-10-15T01:04:23.059Z,99194.72
2022-10-15T01:06:49.869Z,99190.53
2022-10-15T01:09:16.538Z,99192.03
2022-10-15T01:11:49.016Z,99189.28
2022-10-15T01:14:22.760Z,99184.25
2022-10-15T01:16:53.598Z,99173.91
2022-10-15T01:19:32.910Z,99184.25
2022-10-15T01:22:10.753Z,99176.53
2022-10-15T01:24:50.739Z,99173.91
2022-10-15T01:27:18.951Z,99167.59
2022-10-15T01:30:14.581Z,99163.28
2022-10-15T01:33:05.139Z,99167.59
2022-10-15T01:35:46.447Z,99158.53
2022-10-15T01:38:25.260Z,99156.31
2022-10-15T01:40:56.611Z,99154.66
2022-10-15T01:43:28.967Z,99156.69
2022-10-15T01:45:58.925Z,99152.78
2022-10-15T01:48:27.808Z,99142.81
2022-10-15T01:50:57.598Z,99146.28
2022-10-15T01:53:26.792Z,99147.94
2022-10-15T01:56:06.631Z,99149.44
2022-10-15T01:58:35.523Z,99143.34
2022-10-15T02:01:02.044Z,99139.19
2022-10-15T02:03:28.595Z,99142.94
2022-10-15T02:06:04.411Z,99139.84
2022-10-15T02:08:34.007Z,99138.81
2022-10-15T02:11:07.727Z,99140.03
2022-10-15T02:14:00.901Z,99132.13
2022-10-15T02:17:10.104Z,99133.59
2022-10-15T02:19:43.581Z,99126.34
2022-10-15T02:22:24.093Z,99134.25
2022-10-15T02:24:58.197Z,99131.34
2022-10-15T02:27:26.735Z,99125.06
2022-10-15T02:29:53.513Z,99125.84
2022-10-15T02:32:21.977Z,99105.63
2022-10-15T02:34:49.632Z,99104.59
2022-10-15T02:37:17.569Z,99110.09
2022-10-15T02:39:44.063Z,99112.59
2022-10-15T02:42:10.642Z,99099.66
2022-10-15T02:44:37.083Z,99095.97
2022-10-15T02:47:03.938Z,99094.31
2022-10-15T02:49:30.368Z,99097.59
2022-10-15T02:51:57.312Z,99082.91
2022-10-15T02:54:23.767Z,99091.41
2022-10-15T02:56:50.256Z,99095.13
2022-10-15T02:59:18.447Z,99091.47
2022-10-15T03:01:44.879Z,99090.44
2022-10-15T03:04:12.324Z,99088.97
2022-10-15T03:06:38.834Z,99087.09
2022-10-15T03:09:05.462Z,99083.44
2022-10-15T03:11:31.968Z,99076.22
2022-10-15T03:13:58.580Z,99076.22
2022-10-15T03:16:25.070Z,99076.88
2022-10-15T03:18:51.705Z,99078.09
2022-10-15T03:21:18.216Z,99081.88
2022-10-15T03:23:44.867Z,99082.78
2022-10-15T03:26:11.345Z,99078.16
2022-10-15T03:28:37.826Z,99076.28
2022-10-15T03:31:04.596Z,99076.56
2022-10-15T03:33:31.071Z,99077.50
2022-10-15T03:35:57.589Z,99084.31
2022-10-15T03:38:24.088Z,99085.16
2022-10-15T03:40:50.620Z,99083.75
2022-10-15T03:43:17.168Z,99080.03
2022-10-15T03:45:43.614Z,99071.03
2022-10-15T03:48:10.161Z,99073.59
2022-10-15T03:50:36.734Z,99072.75
2022-10-15T03:53:04.997Z,99077.59
2022-10-15T03:55:32.081Z,99081.13
2022-10-15T03:57:58.507Z,99081.88
2022-10-15T04:00:25.102Z,99072.81
2022-10-15T04:02:51.516Z,99074.50
2022-10-15T04:05:18.005Z,99075.78
2022-10-15T04:07:44.446Z,99084.06
2022-10-15T04:10:11.033Z,99083.69
2022-10-15T04:12:37.462Z,99084.72
2022-10-15T04:15:05.277Z,99085.78
2022-10-15T04:17:31.663Z,99086.63
2022-10-15T04:19:58.195Z,99080.78
2022-10-15T04:22:25.180Z,99076.66
2022-10-15T04:24:51.855Z,99074.41
2022-10-15T04:27:18.346Z,99080.00
2022-10-15T04:29:47.795Z,99078.97
2022-10-15T04:32:17.412Z,99080.44
2022-10-15T04:34:45.604Z,99077.53
2022-10-15T04:37:12.092Z,99085.19
2022-10-15T04:39:38.817Z,99086.59
2022-10-15T04:42:05.433Z,99079.31
2022-10-15T04:44:31.973Z,99082.88
2022-10-15T04:46:58.445Z,99079.97
2022-10-15T04:49:24.948Z,99073.28
2022-10-15T04:51:51.365Z,99074.09
2022-10-15T04:54:17.979Z,99068.69
2022-10-15T04:56:44.386Z,99073.72
2022-10-15T04:59:10.991Z,99073.06
2022-10-15T05:01:37.429Z,99069.47
2022-10-15T05:04:04.049Z,99063.31
2022-10-15T05:06:32.508Z,99065.63
2022-10-15T05:08:58.929Z,99067.66
2022-10-15T05:11:27.310Z,99074.50
2022-10-15T05:13:57.713Z,99077.44
2022-10-15T05:16:26.719Z,99083.09
2022-10-15T05:18:56.693Z,99087.06
2022-10-15T05:21:23.293Z,99089.78
2022-10-15T05:23:50.392Z,99078.31
2022-10-15T05:26:19.638Z,99082.44
2022-10-15T05:28:46.202Z,99085.75
2022-10-15T05:31:18.591Z,99074.88
2022-10-15T05:33:46.745Z,99071.59
2022-10-15T05:36:18.347Z,99060.28
2022-10-15T05:38:50.085Z,99063.81
2022-10-15T05:41:16.855Z,99071.72
2022-10-15T05:43:45.923Z,99064.72
2022-10-15T05:46:12.589Z,99063.88
2022-10-15T05:48:39.003Z,99073.00
2022-10-15T05:51:07.815Z,99069.09
2022-10-15T05:53:34.501Z,99069.53
2022-10-15T05:56:01.438Z,99070.31
2022-10-15T05:58:32.080Z,99067.81
2022-10-15T06:01:04.488Z,99070.31
2022-10-15T06:03:31.295Z,99069.84
2022-10-15T06:05:57.939Z,99069.41
2022-10-15T06:08:24.415Z,99075.34
2022-10-15T06:10:51.037Z,99065.63
2022-10-15T06:13:17.691Z,99063.81
2022-10-15T06:15:45.825Z,99063.03
2022-10-15T06:18:15.704Z,99064.53
2022-10-15T06:20:43.564Z,99065.94
2022-10-15T06:23:11.420Z,99081.59
2022-10-15T06:25:38.145Z,99078.31
2022-10-15T06:28:05.980Z,99073.69
2022-10-15T06:30:32.393Z,99081.22
2022-10-15T06:32:58.911Z,99092.75
2022-10-15T06:35:26.954Z,99093.78
2022-10-15T06:37:53.622Z,99103.38
2022-10-15T06:40:20.155Z,99107.56
2022-10-15T06:42:46.590Z,99105.81
2022-10-15T06:45:15.792Z,99113.63
2022-10-15T06:47:44.613Z,99106.97
2022-10-15T06:50:12.091Z,99115.16
2022-10-15T06:52:39.135Z,99111.03
2022-10-15T06:55:06.054Z,99117.56
2022-10-15T06:57:32.472Z,99130.41
2022-10-15T06:59:58.911Z,99125.09
2022-10-15T07:02:25.575Z,99133.41
2022-10-15T07:04:52.413Z,99130.16
2022-10-15T07:07:18.879Z,99132.28
2022-10-15T07:09:46.782Z,99149.41
2022-10-15T07:12:13.618Z,99139.81
2022-10-15T07:14:42.352Z,99149.44
2022-10-15T07:17:09.204Z,99154.47
2022-10-15T07:19:35.649Z,99153.22
2022-10-15T07:22:02.080Z,99155.16
2022-10-15T07:24:28.622Z,99162.50
2022-10-15T07:26:54.980Z,99144.81
2022-10-15T07:29:21.407Z,99155.41
2022-10-15T07:31:47.796Z,99155.91
2022-10-15T07:34:14.376Z,99153.00
2022-10-15T07:36:41.036Z,99154.22
2022-10-15T07:39:08.415Z,99164.31
2022-10-15T07:41:34.843Z,99172.44
2022-10-15T07:44:01.422Z,99175.78
2022-10-15T07:46:28.043Z,99178.69
2022-10-15T07:48:54.451Z,99179.28
2022-10-15T07:51:20.918Z,99184.50
2022-10-15T07:53:47.472Z,99180.25
2022-10-15T07:56:15.361Z,99190.91
2022-10-15T07:58:42.926Z,99195.84
2022-10-15T08:01:10.620Z,99197.09
2022-10-15T08:03:37.821Z,99203.03
2022-10-15T08:06:06.649Z,99211.31
2022-10-15T08:08:34.080Z,99210.78
2022-10-15T08:11:14.592Z,99216.00
2022-10-15T08:13:43.883Z,99224.97
2022-10-15T08:16:12.308Z,99224.03
2022-10-15T08:18:39.605Z,99216.25
2022-10-15T08:21:07.772Z,99226.09
2022-10-15T08:23:34.766Z,99220.84
2022-10-15T08:26:02.078Z,99224.63
2022-10-15T08:28:29.207Z,99222.31
2022-10-15T08:31:02.586Z,99220.22
2022-10-15T08:33:31.934Z,99219.81
2022-10-15T08:35:58.583Z,99223.31
2022-10-15T08:38:25.407Z,99215.50
2022-10-15T08:40:53.972Z,99220.50
2022-10-15T08:43:41.340Z,99227.06
2022-10-15T08:48:49.679Z,99231.09
2022-10-15T08:51:21.967Z,99229.25
2022-10-15T08:53:55.292Z,99228.59
2022-10-15T08:56:28.654Z,99232.34
2022-10-15T08:59:23.522Z,99216.09
2022-10-15T09:01:57.411Z,99209.78
2022-10-15T09:07:07.630Z,99221.09
2022-10-15T09:09:47.191Z,99222.31
2022-10-15T09:12:43.879Z,99227.38
2022-10-15T09:15:13.455Z,99227.75
2022-10-15T09:17:41.641Z,99230.25
2022-10-15T09:20:16.376Z,99229.78
2022-10-15T09:22:42.845Z,99237.09
2022-10-15T09:25:18.104Z,99236.38
2022-10-15T09:27:47.548Z,99245.94
2022-10-15T09:30:28.769Z,99263.72
2022-10-15T09:33:00.352Z,99257.63
2022-10-15T09:35:53.155Z,99260.78
2022-10-15T09:38:35.466Z,99262.88
2022-10-15T09:41:17.201Z,99268.50
2022-10-15T09:43:49.832Z,99269.03
2022-10-15T09:46:16.385Z,99267.00
2022-10-15T09:48:50.509Z,99274.25
2022-10-15T09:51:40.718Z,99263.28
2022-10-15T09:54:49.404Z,99271.28
2022-10-15T09:57:17.450Z,99267.94
2022-10-15T10:00:01.081Z,99271.16
2022-10-15T10:02:29.387Z,99282.75
2022-10-15T10:04:56.481Z,99278.06
2022-10-15T10:07:34.892Z,99284.19
2022-10-15T10:10:07.677Z,99281.66
2022-10-15T10:12:35.734Z,99282.19
2022-10-15T10:15:09.700Z,99282.47
2022-10-15T10:17:36.196Z,99281.53
2022-10-15T10:20:16.253Z,99291.22
2022-10-15T10:22:49.040Z,99293.41
2022-10-15T10:25:27.399Z,99295.06
2022-10-15T10:27:55.290Z,99298.75
2022-10-15T10:30:22.011Z,99294.88
2022-10-15T10:32:48.690Z,99294.63
2022-10-15T10:35:23.557Z,99294.97
2022-10-15T10:37:50.703Z,99291.81
2022-10-15T10:40:34.795Z,99285.13
2022-10-15T10:43:38.205Z,99290.09
2022-10-15T10:46:17.619Z,99295.59
2022-10-15T10:48:49.334Z,99295.44
2022-10-15T10:51:20.002Z,99296.22
2022-10-15T10:53:57.647Z,99296.72
2022-10-15T10:56:37.723Z,99288.84
2022-10-15T10:59:15.471Z,99291.19
2022-10-15T11:01:42.024Z,99279.41
2022-10-15T11:04:15.558Z,99281.25
2022-10-15T11:07:09.525Z,99279.03
2022-10-15T11:09:45.044Z,99278.41
2022-10-15T11:12:22.511Z,99280.94
2022-10-15T11:15:24.440Z,99287.09
2022-10-15T11:18:08.386Z,99280.25
2022-10-15T11:20:58.674Z,99272.34
2022-10-15T11:23:41.210Z,99271.84
2022-10-15T11:26:37.169Z,99287.75
2022-10-15T11:29:32.732Z,99288.69
2022-10-15T11:32:18.634Z,99285.81
2022-10-15T11:35:08.199Z,99288.78
2022-10-15T11:37:49.364Z,99291.34
2022-10-15T11:40:22.510Z,99283.56
2022-10-15T11:43:00.232Z,99282.66
2022-10-15T11:45:39.579Z,99288.44
2022-10-15T11:48:11.571Z,99295.03
2022-10-15T11:50:57.654Z,99299.63
2022-10-15T11:53:49.959Z,99299.00
2022-10-15T11:56:36.394Z,99302.75
2022-10-15T11:59:25.656Z,99296.97
2022-10-15T12:01:59.922Z,99299.97
2022-10-15T12:04:43.881Z,99295.22
2022-10-15T12:07:23.198Z,99292.44
2022-10-15T12:09:57.864Z,99287.34
2022-10-15T12:12:46.707Z,99291.63
2022-10-15T12:15:32.150Z,99292.75
2022-10-15T12:18:17.669Z,99295.06
2022-10-15T12:20:45.556Z,99307.78
2022-10-15T12:23:36.581Z,99299.31
2022-10-15T12:26:26.910Z,99292.59
2022-10-15T12:28:59.609Z,99297.78
2022-10-15T12:31:49.336Z,99288.19
2022-10-15T12:34:29.911Z,99293.38
2022-10-15T12:37:05.235Z,99297.97
2022-10-15T12:39:52.149Z,99299.25
2022-10-15T12:42:38.602Z,99292.88
2022-10-15T12:45:08.286Z,99292.53
2022-10-15T12:47:54.977Z,99297.91
2022-10-15T12:50:26.856Z,99300.63
2022-10-15T12:53:24.473Z,99297.34
2022-10-15T12:56:15.259Z,99300.19
2022-10-15T12:58:43.926Z,99300.91
2022-10-15T13:01:13.444Z,99300.97
2022-10-15T13:03:52.587Z,99303.31
2022-10-15T13:06:22.275Z,99289.00
2022-10-15T13:09:09.863Z,99287.22
2022-10-15T13:11:56.398Z,99285.81
2022-10-15T13:14:39.561Z,99280.34
2022-10-15T13:17:17.255Z,99281.28
2022-10-15T13:19:58.024Z,99267.50
2022-10-15T13:22:29.851Z,99263.19
2022-10-15T13:24:56.680Z,99261.81
2022-10-15T13:27:26.633Z,99265.69
2022-10-15T13:30:06.578Z,99277.16
2022-10-15T13:32:40.180Z,99273.25
2022-10-15T13:35:12.220Z,99269.19
2022-10-15T13:37:40.361Z,99269.09
2022-10-15T13:40:08.526Z,99260.66
2022-10-15T13:42:35.596Z,99263.88
2022-10-15T13:45:13.578Z,99268.53
2022-10-15T13:47:42.869Z,99283.13
2022-10-15T13:50:23.733Z,99273.28
2022-10-15T13:52:57.479Z,99270.06
2022-10-15T13:55:28.927Z,99271.25
2022-10-15T13:58:14.163Z,99280.22
2022-10-15T14:00:40.673Z,99285.78
2022-10-15T14:03:08.941Z,99290.78
2022-10-15T14:05:35.609Z,99287.16
2022-10-15T14:08:02.002Z,99289.75
2022-10-15T14:10:28.594Z,99292.78
2022-10-15T14:12:55.006Z,99307.84
2022-10-15T14:15:48.330Z,99307.72
2022-10-15T14:18:16.772Z,99302.09
2022-10-15T14:20:45.517Z,99305.00
2022-10-15T14:23:24.757Z,99306.22
2022-10-15T14:25:56.703Z,99305.50
2022-10-15T14:28:24.296Z,99311.44
2022-10-15T14:30:51.634Z,99316.28
2022-10-15T14:33:30.294Z,99309.28
2022-10-15T14:36:24.650Z,99307.91
2022-10-15T14:38:53.570Z,99305.78
2022-10-15T14:41:28.931Z,99305.22
2022-10-15T14:44:11.831Z,99311.28
2022-10-15T14:47:01.560Z,99306.94
2022-10-15T14:49:31.083Z,99319.38
2022-10-15T14:52:10.661Z,99318.22
2022-10-15T14:54:41.452Z,99321.84
2022-10-15T14:57:23.570Z,99317.31
2022-10-15T14:59:52.647Z,99319.31
2022-10-15T15:02:19.290Z,99314.34
2022-10-15T15:04:53.225Z,99313.16
2022-10-15T15:07:20.927Z,99309.81
2022-10-15T15:09:48.787Z,99305.81
2022-10-15T15:12:19.998Z,99306.78
2022-10-15T15:14:48.252Z,99302.38
2022-10-15T15:17:17.875Z,99303.00
2022-10-15T15:19:44.321Z,99307.94
2022-10-15T15:22:12.294Z,99309.00
2022-10-15T15:24:38.929Z,99309.22
2022-10-15T15:27:05.574Z,99312.09
2022-10-15T15:29:31.918Z,99315.19
2022-10-15T15:31:58.291Z,99316.78
2022-10-15T15:34:24.715Z,99313.19
2022-10-15T15:36:51.331Z,99316.09
2022-10-15T15:39:17.723Z,99322.28
2022-10-15T15:41:44.106Z,99332.22
2022-10-15T15:44:13.600Z,99341.75
2022-10-15T15:46:40.000Z,99341.88
2022-10-15T15:49:06.415Z,99345.72
2022-10-15T15:51:32.907Z,99350.41
2022-10-15T15:53:59.444Z,99352.66
2022-10-15T15:56:25.849Z,99358.94
2022-10-15T15:58:52.510Z,99354.78
2022-10-15T16:01:19.757Z,99352.38
2022-10-15T16:03:46.446Z,99359.44
2022-10-15T16:06:13.958Z,99359.94
2022-10-15T16:08:40.344Z,99361.56
2022-10-15T16:11:06.806Z,99363.38
2022-10-15T16:13:33.487Z,99360.25
2022-10-15T16:15:59.852Z,99364.25
2022-10-15T16:18:26.248Z,99363.28
2022-10-15T16:20:52.930Z,99363.34
2022-10-15T16:23:19.320Z,99358.00
2022-10-15T16:25:45.795Z,99358.28
2022-10-15T16:28:12.197Z,99358.72
2022-10-15T16:30:38.654Z,99363.53
2022-10-15T16:33:09.938Z,99373.66
2022-10-15T16:35:36.505Z,99378.41
2022-10-15T16:38:02.923Z,99382.97
2022-10-15T16:40:29.506Z,99374.22
2022-10-15T16:42:55.900Z,99393.31
2022-10-15T16:45:22.272Z,99397.13
2022-10-15T16:47:49.240Z,99385.34
2022-10-15T16:50:15.813Z,99383.13
2022-10-15T16:52:42.216Z,99392.28
2022-10-15T16:55:08.987Z,99392.56
2022-10-15T16:57:35.784Z,99391.94
2022-10-15T17:00:02.234Z,99401.38
2022-10-15T17:02:28.807Z,99403.25
2022-10-15T17:04:55.286Z,99395.94
2022-10-15T17:07:21.891Z,99382.75
2022-10-15T17:12:19.684Z,99406.50
2022-10-15T17:14:50.737Z,99408.63
2022-10-15T17:17:17.252Z,99417.56
2022-10-15T17:19:43.616Z,99415.00
2022-10-15T17:22:09.982Z,99421.50
2022-10-15T17:24:36.388Z,99424.94
2022-10-15T17:27:07.158Z,99437.56
2022-10-15T17:29:33.976Z,99441.16
2022-10-15T17:32:01.012Z,99449.97
2022-10-15T17:34:28.034Z,99443.69
2022-10-15T17:36:55.985Z,99444.53
2022-10-15T17:39:22.581Z,99440.19
2022-10-15T17:41:50.288Z,99446.50
2022-10-15T17:44:16.691Z,99437.53
2022-10-15T17:46:43.117Z,99445.09
2022-10-15T17:49:11.095Z,99447.19
2022-10-15T17:51:37.573Z,99439.88
2022-10-15T17:54:05.455Z,99438.38
2022-10-15T17:56:35.794Z,99442.50
2022-10-15T17:59:05.015Z,99439.13
2022-10-15T18:01:57.365Z,99435.56
2022-10-15T18:04:25.287Z,99440.75
2022-10-15T18:06:52.143Z,99454.31
2022-10-15T18:09:18.795Z,99456.31
2022-10-15T18:11:48.260Z,99449.00
2022-10-15T18:14:14.935Z,99455.84
2022-10-15T18:16:41.324Z,99448.56
2022-10-15T18:19:08.026Z,99454.53
2022-10-15T18:21:35.018Z,99444.53
2022-10-15T18:24:01.530Z,99437.81
2022-10-15T18:26:27.998Z,99440.78
2022-10-15T18:28:54.717Z,99447.22
2022-10-15T18:31:22.249Z,99448.44
2022-10-15T18:33:51.941Z,99445.44
2022-10-15T18:36:29.026Z,99438.19
2022-10-15T18:38:56.068Z,99446.91
2022-10-15T18:41:30.671Z,99442.72
2022-10-15T18:44:02.527Z,99451.28
2022-10-15T18:46:29.568Z,99453.88
2022-10-15T18:48:56.048Z,99462.16
2022-10-15T18:51:25.166Z,99451.78
2022-10-15T18:53:52.136Z,99445.72
2022-10-15T18:56:19.828Z,99453.03
2022-10-15T18:58:46.659Z,99449.47
2022-10-15T19:01:33.701Z,99452.53
2022-10-15T19:04:03.038Z,99456.66
2022-10-15T19:06:32.149Z,99457.13
2022-10-15T19:09:02.839Z,99453.88
2022-10-15T19:11:29.477Z,99459.38
2022-10-15T19:13:57.108Z,99449.50
2022-10-15T19:16:23.744Z,99452.84
2022-10-15T19:18:50.321Z,99444.41
2022-10-15T19:21:16.923Z,99447.06
2022-10-15T19:23:43.343Z,99455.44
2022-10-15T19:26:11.007Z,99452.34
2022-10-15T19:28:41.637Z,99456.47
2022-10-15T19:31:09.965Z,99448.66
2022-10-15T19:33:37.712Z,99459.75
2022-10-15T19:36:04.733Z,99460.50
2022-10-15T19:38:31.234Z,99455.06
2022-10-15T19:41:02.566Z,99461.34
2022-10-15T19:43:28.951Z,99464.88
2022-10-15T19:45:55.371Z,99462.59
2022-10-15T19:48:22.971Z,99464.47
2022-10-15T19:50:49.550Z,99453.88
2022-10-15T19:53:17.035Z,99458.34
2022-10-15T19:55:55.817Z,99467.69
2022-10-15T19:58:22.750Z,99464.72
2022-10-15T20:00:50.018Z,99471.38
2022-10-15T20:03:16.465Z,99473.19
2022-10-15T20:05:44.040Z,99479.09
2022-10-15T20:08:11.305Z,99483.03
2022-10-15T20:10:44.747Z,99481.44
2022-10-15T20:13:12.026Z,99484.53
2022-10-15T20:15:42.835Z,99483.13
2022-10-15T20:18:09.526Z,99496.00
2022-10-15T20:20:40.280Z,99493.75
2022-10-15T20:23:06.999Z,99505.81
2022-10-15T20:25:33.580Z,99509.56
2022-10-15T20:28:00.045Z,99514.97
2022-10-15T20:30:27.651Z,99512.19
2022-10-15T20:32:54.108Z,99511.56
2022-10-15T20:35:20.741Z,99512.53
2022-10-15T20:37:47.504Z,99518.50
2022-10-15T20:40:14.178Z,99514.31
2022-10-15T20:42:41.237Z,99523.56
2022-10-15T20:45:11.272Z,99520.72
2022-10-15T20:47:41.260Z,99518.78
2022-10-15T20:50:13.926Z,99527.19
2022-10-15T20:52:41.642Z,99533.84
2022-10-15T20:55:09.548Z,99537.59
2022-10-15T20:57:36.546Z,99547.81
2022-10-15T21:00:05.702Z,99555.13
2022-10-15T21:02:32.156Z,99557.72
2022-10-15T21:04:58.633Z,99555.66
2022-10-15T21:07:25.081Z,99554.75
2022-10-15T21:09:51.857Z,99552.03
2022-10-15T21:12:18.590Z,99547.47
2022-10-15T21:14:45.459Z,99550.03
2022-10-15T21:17:12.418Z,99564.81
2022-10-15T21:19:38.819Z,99564.72
2022-10-15T21:22:05.342Z,99562.94
2022-10-15T21:24:34.460Z,99567.53
2022-10-15T21:27:01.500Z,99562.94
2022-10-15T21:29:28.217Z,99577.63
2022-10-15T21:31:54.994Z,99574.97
2022-10-15T21:34:23.008Z,99564.44
2022-10-15T21:36:49.458Z,99566.59
2022-10-15T21:39:16.297Z,99577.34
2022-10-15T21:41:42.809Z,99570.63
2022-10-15T21:44:09.212Z,99571.19
2022-10-15T21:46:35.936Z,99576.91
2022-10-15T21:49:03.446Z,99579.56
2022-10-15T21:51:31.921Z,99576.25
2022-10-15T21:53:58.787Z,99583.25
2022-10-15T21:56:25.496Z,99581.13
2022-10-15T21:58:52.318Z,99579.84
2022-10-15T22:01:31.160Z,99593.41
2022-10-15T22:04:00.460Z,99592.63
2022-10-15T22:06:27.382Z,99597.22
2022-10-15T22:08:54.067Z,99596.38
2022-10-15T22:11:24.037Z,99593.06
2022-10-15T22:13:55.316Z,99592.59
2022-10-15T22:16:22.968Z,99597.59
2022-10-15T22:18:49.451Z,99600.94
2022-10-15T22:21:22.062Z,99596.47
2022-10-15T22:24:18.286Z,99593.06
2022-10-15T22:26:47.484Z,99588.28
2022-10-15T22:29:20.078Z,99582.28
2022-10-15T22:31:46.679Z,99583.69
2022-10-15T22:34:13.343Z,99590.47
2022-10-15T22:36:39.967Z,99595.66
2022-10-15T22:39:07.637Z,99596.44
2022-10-15T22:41:36.832Z,99592.16
2022-10-15T22:44:03.429Z,99601.53
2022-10-15T22:46:37.465Z,99604.19
2022-10-15T22:49:05.117Z,99613.50
2022-10-15T22:51:32.061Z,99610.81
2022-10-15T22:54:00.002Z,99600.88
2022-10-15T22:56:28.945Z,99614.97
2022-10-15T22:58:56.925Z,99611.22
2022-10-15T23:01:28.947Z,99612.41
2022-10-15T23:03:57.891Z,99614.94
2022-10-15T23:06:25.784Z,99612.88
2022-10-15T23:08:52.264Z,99615.16
2022-10-15T23:11:30.957Z,99612.31
2022-10-15T23:14:05.467Z,99612.06
2022-10-15T23:16:38.046Z,99604.19
2022-10-15T23:19:14.201Z,99600.53
2022-10-15T23:21:44.556Z,99603.56
2022-10-15T23:24:12.358Z,99596.63
2022-10-15T23:26:40.303Z,99593.81
2022-10-15T23:29:11.074Z,99591.78
2022-10-15T23:31:37.713Z,99589.09
2022-10-15T23:34:05.477Z,99596.06
2022-10-15T23:36:34.099Z,99593.25
2022-10-15T23:39:03.744Z,99587.03
2022-10-15T23:41:30.980Z,99590.34
2022-10-15T23:43:57.746Z,99592.63
2022-10-15T23:46:24.334Z,99591.22
2022-10-15T23:48:50.764Z,99595.31
2022-10-15T23:51:28.801Z,99587.81
2022-10-15T23:53:56.914Z,99599.16
2022-10-15T23:56:23.903Z,99595.31
2022-10-15T23:58:51.795Z,99596.44
